createdAt,value
2024-01-27T00:00:53.568Z,4.20
2024-01-27T00:01:54.379Z,3.70
2024-01-27T00:02:55.128Z,5.80
2024-01-27T00:03:55.913Z,4.50
2024-01-27T00:04:56.692Z,4.70
2024-01-27T00:05:57.570Z,3.80
2024-01-27T00:06:58.483Z,6.20
2024-01-27T00:07:59.367Z,3.70
2024-01-27T00:09:00.173Z,5.30
2024-01-27T00:10:00.875Z,4.30
2024-01-27T00:11:01.624Z,3.60
2024-01-27T00:12:02.417Z,4.50
2024-01-27T00:13:03.158Z,4.20
2024-01-27T00:14:03.911Z,5.10
2024-01-27T00:15:04.758Z,4.40
2024-01-27T00:16:05.486Z,5.00
2024-01-27T00:17:06.283Z,4.40
2024-01-27T00:18:07.177Z,5.00
2024-01-27T00:19:08.119Z,5.20
2024-01-27T00:20:09.152Z,4.60
2024-01-27T00:21:09.506Z,5.00
2024-01-27T00:22:10.272Z,4.00
2024-01-27T00:23:11.016Z,4.20
2024-01-27T00:24:11.830Z,4.10
2024-01-27T00:25:12.566Z,4.30
2024-01-27T00:26:13.374Z,5.10
2024-01-27T00:27:14.238Z,4.10
2024-01-27T00:28:14.984Z,3.60
2024-01-27T00:29:15.737Z,3.70
2024-01-27T00:30:16.523Z,4.50
2024-01-27T00:31:17.272Z,4.30
2024-01-27T00:32:18.090Z,4.30
2024-01-27T00:33:18.977Z,4.20
2024-01-27T00:34:19.893Z,5.40
2024-01-27T00:35:20.660Z,3.60
2024-01-27T00:36:21.507Z,5.40
2024-01-27T00:37:22.254Z,4.70
2024-01-27T00:38:22.992Z,5.10
2024-01-27T00:39:23.897Z,4.10
2024-01-27T00:40:24.693Z,4.20
2024-01-27T00:41:25.473Z,4.00
2024-01-27T00:42:26.402Z,5.00
2024-01-27T00:43:27.171Z,5.50
2024-01-27T00:44:27.914Z,4.60
2024-01-27T00:45:28.854Z,4.70
2024-01-27T00:46:29.599Z,5.40
2024-01-27T00:47:30.482Z,3.80
2024-01-27T00:48:31.310Z,4.40
2024-01-27T00:49:32.334Z,4.40
2024-01-27T00:50:32.721Z,5.30
2024-01-27T00:51:33.565Z,4.80
2024-01-27T00:52:34.352Z,4.40
2024-01-27T00:53:35.100Z,5.20
2024-01-27T00:54:35.868Z,4.80
2024-01-27T00:55:36.661Z,4.10
2024-01-27T00:56:37.401Z,4.50
2024-01-27T00:57:38.146Z,5.20
2024-01-27T00:58:38.897Z,4.80
2024-01-27T00:59:39.680Z,5.40
2024-01-27T01:00:40.450Z,6.00
2024-01-27T01:01:41.284Z,4.80
2024-01-27T01:02:42.204Z,5.80
2024-01-27T01:03:43.026Z,5.30
2024-01-27T01:04:43.932Z,5.40
2024-01-27T01:05:44.720Z,5.20
2024-01-27T01:06:45.495Z,5.10
2024-01-27T01:07:46.217Z,5.20
2024-01-27T01:08:47.056Z,4.00
2024-01-27T01:09:47.824Z,4.60
2024-01-27T01:10:48.567Z,6.10
2024-01-27T01:11:49.337Z,5.00
2024-01-27T01:12:50.070Z,5.20
2024-01-27T01:13:50.852Z,4.40
2024-01-27T01:14:51.630Z,5.20
2024-01-27T01:15:52.355Z,4.90
2024-01-27T01:16:53.108Z,5.60
2024-01-27T01:17:54.254Z,4.70
2024-01-27T01:18:55.167Z,6.90
2024-01-27T01:19:56.006Z,5.30
2024-01-27T01:20:56.788Z,5.40
2024-01-27T01:21:57.562Z,5.40
2024-01-27T01:22:58.312Z,6.30
2024-01-27T01:23:59.096Z,5.20
2024-01-27T01:24:59.827Z,5.30
2024-01-27T01:26:00.611Z,5.70
2024-01-27T01:27:01.371Z,5.00
2024-01-27T01:28:02.158Z,5.70
2024-01-27T01:29:02.904Z,5.90
2024-01-27T01:30:03.704Z,5.30
2024-01-27T01:31:04.475Z,5.60
2024-01-27T01:32:05.238Z,6.10
2024-01-27T01:33:06.133Z,5.40
2024-01-27T01:34:06.963Z,6.60
2024-01-27T01:35:07.710Z,5.10
2024-01-27T01:36:08.504Z,6.00
2024-01-27T01:37:09.260Z,5.00
2024-01-27T01:38:10.012Z,5.70
2024-01-27T01:39:10.804Z,5.90
2024-01-27T01:40:11.567Z,6.60
2024-01-27T01:41:12.325Z,5.70
2024-01-27T01:42:13.185Z,6.50
2024-01-27T01:43:13.898Z,5.70
2024-01-27T01:44:14.669Z,6.00
2024-01-27T01:45:15.443Z,5.50
2024-01-27T01:46:16.245Z,6.00
2024-01-27T01:47:16.984Z,5.20
2024-01-27T01:48:17.838Z,7.20
2024-01-27T01:49:18.730Z,6.30
2024-01-27T01:50:19.525Z,5.90
2024-01-27T01:51:20.336Z,5.70
2024-01-27T01:52:21.076Z,7.00
2024-01-27T01:53:21.832Z,5.90
2024-01-27T01:54:22.673Z,6.70
2024-01-27T01:55:23.447Z,5.80
2024-01-27T01:56:24.169Z,6.30
2024-01-27T01:57:25.064Z,5.60
2024-01-27T01:58:25.886Z,6.20
2024-01-27T01:59:26.646Z,5.90
2024-01-27T02:00:27.512Z,6.80
2024-01-27T02:01:28.508Z,6.50
2024-01-27T02:02:29.303Z,6.70
2024-01-27T02:03:30.197Z,5.70
2024-01-27T02:04:31.028Z,7.10
2024-01-27T02:05:31.882Z,5.70
2024-01-27T02:06:32.699Z,7.40
2024-01-27T02:07:33.450Z,7.20
2024-01-27T02:08:34.253Z,6.70
2024-01-27T02:09:35.072Z,8.50
2024-01-27T02:10:35.781Z,6.60
2024-01-27T02:11:36.539Z,7.10
2024-01-27T02:12:37.285Z,7.10
2024-01-27T02:13:38.035Z,7.40
2024-01-27T02:14:38.819Z,7.40
2024-01-27T02:15:39.669Z,7.80
2024-01-27T02:16:40.411Z,7.40
2024-01-27T02:17:41.270Z,6.80
2024-01-27T02:18:42.207Z,8.20
2024-01-27T02:19:43.074Z,9.40
2024-01-27T02:20:43.815Z,8.20
2024-01-27T02:21:44.586Z,7.20
2024-01-27T02:22:45.326Z,7.90
2024-01-27T02:23:46.160Z,7.60
2024-01-27T02:24:46.892Z,7.80
2024-01-27T02:25:47.644Z,8.40
2024-01-27T02:26:48.404Z,7.50
2024-01-27T02:27:49.167Z,8.50
2024-01-27T02:28:49.947Z,8.00
2024-01-27T02:29:50.740Z,8.20
2024-01-27T02:30:51.465Z,8.70
2024-01-27T02:31:52.217Z,7.70
2024-01-27T02:32:53.068Z,9.10
2024-01-27T02:33:53.952Z,9.50
2024-01-27T02:34:54.752Z,9.50
2024-01-27T02:35:55.490Z,9.00
2024-01-27T02:36:56.228Z,9.40
2024-01-27T02:37:57.030Z,9.60
2024-01-27T02:38:57.781Z,8.20
2024-01-27T02:39:58.527Z,9.50
2024-01-27T02:40:59.268Z,9.60
2024-01-27T02:42:00.090Z,8.10
2024-01-27T02:43:00.827Z,9.20
2024-01-27T02:44:01.578Z,10.40
2024-01-27T02:45:02.367Z,8.60
2024-01-27T02:46:03.118Z,8.60
2024-01-27T02:47:03.896Z,10.10
2024-01-27T02:48:04.860Z,9.10
2024-01-27T02:49:05.235Z,8.40
2024-01-27T02:50:06.027Z,9.80
2024-01-27T02:51:06.799Z,8.80
2024-01-27T02:52:07.558Z,10.10
2024-01-27T02:53:08.312Z,9.50
2024-01-27T02:54:09.082Z,9.50
2024-01-27T02:55:09.814Z,10.30
2024-01-27T02:56:10.601Z,8.50
2024-01-27T02:57:11.400Z,9.80
2024-01-27T02:58:12.122Z,10.10
2024-01-27T02:59:12.878Z,9.70
2024-01-27T03:00:13.645Z,10.00
2024-01-27T03:01:14.442Z,10.60
2024-01-27T03:02:15.162Z,9.00
2024-01-27T03:03:15.968Z,11.60
2024-01-27T03:04:16.791Z,9.20
2024-01-27T03:05:17.602Z,10.90
2024-01-27T03:06:18.407Z,9.50
2024-01-27T03:07:18.955Z,10.20
2024-01-27T03:08:19.704Z,10.70
2024-01-27T03:09:20.468Z,10.20
2024-01-27T03:10:21.219Z,11.80
2024-01-27T03:11:21.973Z,10.80
2024-01-27T03:12:22.800Z,10.80
2024-01-27T03:13:23.528Z,9.60
2024-01-27T03:14:24.285Z,10.70
2024-01-27T03:15:25.087Z,10.40
2024-01-27T03:16:25.826Z,9.90
2024-01-27T03:17:26.606Z,10.50
2024-01-27T03:18:27.539Z,10.60
2024-01-27T03:19:28.113Z,10.20
2024-01-27T03:20:28.384Z,9.90
2024-01-27T03:21:29.191Z,11.00
2024-01-27T03:22:29.900Z,10.00
2024-01-27T03:23:30.674Z,10.40
2024-01-27T03:24:31.486Z,11.60
2024-01-27T03:25:32.210Z,10.40
2024-01-27T03:26:33.005Z,11.60
2024-01-27T03:27:33.737Z,11.10
2024-01-27T03:28:34.476Z,11.20
2024-01-27T03:29:35.256Z,11.40
2024-01-27T03:30:36.040Z,11.60
2024-01-27T03:31:36.814Z,11.60
2024-01-27T03:32:37.616Z,11.50
2024-01-27T03:33:38.559Z,11.00
2024-01-27T03:34:39.439Z,10.60
2024-01-27T03:35:40.187Z,10.70
2024-01-27T03:36:40.935Z,10.80
2024-01-27T03:37:41.681Z,11.30
2024-01-27T03:38:42.460Z,11.30
2024-01-27T03:39:43.266Z,11.10
2024-01-27T03:40:44.026Z,11.70
2024-01-27T03:41:44.783Z,12.50
2024-01-27T03:42:45.560Z,11.00
2024-01-27T03:43:46.344Z,12.30
2024-01-27T03:44:47.105Z,12.30
2024-01-27T03:45:47.870Z,12.10
2024-01-27T03:46:48.600Z,11.80
2024-01-27T03:47:51.335Z,12.50
2024-01-27T03:48:50.408Z,13.50
2024-01-27T03:49:51.352Z,12.50
2024-01-27T03:50:52.167Z,12.30
2024-01-27T03:51:52.926Z,13.00
2024-01-27T03:52:53.704Z,13.50
2024-01-27T03:53:54.668Z,13.80
2024-01-27T03:54:55.390Z,14.00
2024-01-27T03:55:56.141Z,12.80
2024-01-27T03:56:56.967Z,12.60
2024-01-27T03:57:57.680Z,12.00
2024-01-27T03:58:58.432Z,12.20
2024-01-27T03:59:59.214Z,12.70
2024-01-27T04:01:00.005Z,13.40
2024-01-27T04:02:00.789Z,12.80
2024-01-27T04:03:01.523Z,13.30
2024-01-27T04:04:02.406Z,11.80
2024-01-27T04:05:03.187Z,13.20
2024-01-27T04:06:04.154Z,11.80
2024-01-27T04:07:04.658Z,12.70
2024-01-27T04:08:05.439Z,13.80
2024-01-27T04:09:06.231Z,12.80
2024-01-27T04:10:07.008Z,15.40
2024-01-27T04:11:07.752Z,12.30
2024-01-27T04:12:08.538Z,12.80
2024-01-27T04:13:09.309Z,13.00
2024-01-27T04:14:10.074Z,13.70
2024-01-27T04:15:10.866Z,14.70
2024-01-27T04:16:11.613Z,14.20
2024-01-27T04:17:12.361Z,14.40
2024-01-27T04:18:13.491Z,15.70
2024-01-27T04:19:13.997Z,14.20
2024-01-27T04:20:14.825Z,14.70
2024-01-27T04:21:15.656Z,15.30
2024-01-27T04:22:16.432Z,13.30
2024-01-27T04:23:17.243Z,13.30
2024-01-27T04:24:18.008Z,14.30
2024-01-27T04:25:18.889Z,15.00
2024-01-27T04:26:19.624Z,13.40
2024-01-27T04:27:20.408Z,14.00
2024-01-27T04:28:21.212Z,14.40
2024-01-27T04:29:21.998Z,15.10
2024-01-27T04:30:22.825Z,14.50
2024-01-27T04:31:23.634Z,14.10
2024-01-27T04:32:24.414Z,13.60
2024-01-27T04:33:25.222Z,13.60
2024-01-27T04:34:26.103Z,14.90
2024-01-27T04:35:26.865Z,13.60
2024-01-27T04:36:27.714Z,14.40
2024-01-27T04:37:28.480Z,12.40
2024-01-27T04:38:29.261Z,12.30
2024-01-27T04:39:30.141Z,13.60
2024-01-27T04:40:30.924Z,13.00
2024-01-27T04:41:31.666Z,11.50
2024-01-27T04:42:32.451Z,11.60
2024-01-27T04:43:33.203Z,11.80
2024-01-27T04:44:33.959Z,11.80
2024-01-27T04:45:34.777Z,10.90
2024-01-27T04:46:35.586Z,11.60
2024-01-27T04:47:36.424Z,12.30
2024-01-27T04:48:37.423Z,11.90
2024-01-27T04:49:37.822Z,11.00
2024-01-27T04:50:38.653Z,11.30
2024-01-27T04:51:39.425Z,11.70
2024-01-27T04:52:39.956Z,11.40
2024-01-27T04:53:40.711Z,11.60
2024-01-27T04:54:41.581Z,11.50
2024-01-27T04:55:42.302Z,10.40
2024-01-27T04:56:43.052Z,10.70
2024-01-27T04:57:43.846Z,10.20
2024-01-27T04:58:44.591Z,11.70
2024-01-27T04:59:45.354Z,10.40
2024-01-27T05:00:46.198Z,11.30
2024-01-27T05:01:46.989Z,10.20
2024-01-27T05:02:47.905Z,9.50
2024-01-27T05:03:48.707Z,10.40
2024-01-27T05:04:49.464Z,8.90
2024-01-27T05:05:50.362Z,9.10
2024-01-27T05:06:51.193Z,10.10
2024-01-27T05:07:51.966Z,9.90
2024-01-27T05:08:52.771Z,9.50
2024-01-27T05:09:53.522Z,10.30
2024-01-27T05:10:57.481Z,9.90
2024-01-27T05:11:54.968Z,10.00
2024-01-27T05:12:55.730Z,9.30
2024-01-27T05:13:56.483Z,10.20
2024-01-27T05:14:57.264Z,10.30
2024-01-27T05:15:58.027Z,9.40
2024-01-27T05:16:58.819Z,10.40
2024-01-27T05:17:59.620Z,8.50
2024-01-27T05:19:00.443Z,9.00
2024-01-27T05:20:01.359Z,9.30
2024-01-27T05:21:02.226Z,9.50
2024-01-27T05:22:02.939Z,9.50
2024-01-27T05:23:03.706Z,10.10
2024-01-27T05:24:04.482Z,8.40
2024-01-27T05:25:05.248Z,8.60
2024-01-27T05:26:06.024Z,8.80
2024-01-27T05:27:06.835Z,8.50
2024-01-27T05:28:07.619Z,8.00
2024-01-27T05:29:08.325Z,7.90
2024-01-27T05:30:09.163Z,8.50
2024-01-27T05:31:09.910Z,8.30
2024-01-27T05:32:10.702Z,8.60
2024-01-27T05:33:11.651Z,8.00
2024-01-27T05:34:12.072Z,8.70
2024-01-27T05:35:12.903Z,8.80
2024-01-27T05:36:13.701Z,9.30
2024-01-27T05:37:14.436Z,9.90
2024-01-27T05:38:15.177Z,9.00
2024-01-27T05:39:15.972Z,9.30
2024-01-27T05:40:16.780Z,8.90
2024-01-27T05:41:17.498Z,8.90
2024-01-27T05:42:18.255Z,8.70
2024-01-27T05:43:18.994Z,9.10
2024-01-27T05:44:19.790Z,7.50
2024-01-27T05:45:20.608Z,7.90
2024-01-27T05:46:21.375Z,8.80
2024-01-27T05:47:22.110Z,8.00
2024-01-27T05:48:23.010Z,7.20
2024-01-27T05:49:24.047Z,7.00
2024-01-27T05:50:24.329Z,7.50
2024-01-27T05:51:25.129Z,8.20
2024-01-27T05:52:25.906Z,7.90
2024-01-27T05:53:26.646Z,8.70
2024-01-27T05:54:27.432Z,7.40
2024-01-27T05:55:28.170Z,8.20
2024-01-27T05:56:28.917Z,7.80
2024-01-27T05:57:29.690Z,8.20
2024-01-27T05:58:30.441Z,9.60
2024-01-27T05:59:31.208Z,9.20
2024-01-27T06:00:32.074Z,8.10
2024-01-27T06:01:32.850Z,8.70
2024-01-27T06:02:33.630Z,8.00
2024-01-27T06:03:34.470Z,8.00
2024-01-27T06:04:35.232Z,8.00
2024-01-27T06:05:36.004Z,8.40
2024-01-27T06:06:36.892Z,8.00
2024-01-27T06:07:37.692Z,8.40
2024-01-27T06:08:38.483Z,7.60
2024-01-27T06:09:39.306Z,7.80
2024-01-27T06:10:40.104Z,7.30
2024-01-27T06:11:40.882Z,7.40
2024-01-27T06:12:41.705Z,7.20
2024-01-27T06:13:42.491Z,9.20
2024-01-27T06:14:43.215Z,8.00
2024-01-27T06:15:43.986Z,7.20
2024-01-27T06:16:44.741Z,8.60
2024-01-27T06:17:45.598Z,8.10
2024-01-27T06:18:46.508Z,7.10
2024-01-27T06:19:47.554Z,8.90
2024-01-27T06:20:48.431Z,9.60
2024-01-27T06:21:49.274Z,8.10
2024-01-27T06:22:49.989Z,7.40
2024-01-27T06:23:50.793Z,7.70
2024-01-27T06:24:51.546Z,10.90
2024-01-27T06:25:52.297Z,7.00
2024-01-27T06:26:53.090Z,8.00
2024-01-27T06:27:53.826Z,8.20
2024-01-27T06:28:54.576Z,7.70
2024-01-27T06:29:55.621Z,7.90
2024-01-27T06:30:56.382Z,7.90
2024-01-27T06:31:57.139Z,7.30
2024-01-27T06:32:58.002Z,8.10
2024-01-27T06:33:58.439Z,8.00
2024-01-27T06:34:59.290Z,8.90
2024-01-27T06:36:00.185Z,7.50
2024-01-27T06:37:00.951Z,8.70
2024-01-27T06:38:01.689Z,8.90
2024-01-27T06:39:02.478Z,7.50
2024-01-27T06:40:03.221Z,9.40
2024-01-27T06:41:03.967Z,9.00
2024-01-27T06:42:04.767Z,8.30
2024-01-27T06:43:05.495Z,9.10
2024-01-27T06:44:06.237Z,9.70
2024-01-27T06:45:07.065Z,9.80
2024-01-27T06:46:07.819Z,9.00
2024-01-27T06:47:08.557Z,10.20
2024-01-27T06:48:09.420Z,9.70
2024-01-27T06:49:10.450Z,9.50
2024-01-27T06:50:10.798Z,8.90
2024-01-27T06:51:11.576Z,8.30
2024-01-27T06:52:12.497Z,9.70
2024-01-27T06:53:13.229Z,8.30
2024-01-27T06:54:14.086Z,8.90
2024-01-27T06:55:14.857Z,7.90
2024-01-27T06:56:15.607Z,8.10
2024-01-27T06:57:16.380Z,8.00
2024-01-27T06:58:17.171Z,9.30
2024-01-27T06:59:17.941Z,8.90
2024-01-27T07:00:18.745Z,8.40
2024-01-27T07:01:19.622Z,10.90
2024-01-27T07:02:20.349Z,8.80
2024-01-27T07:03:21.246Z,11.80
2024-01-27T07:04:22.101Z,11.10
2024-01-27T07:05:22.886Z,9.80
2024-01-27T07:06:23.720Z,9.80
2024-01-27T07:07:24.705Z,9.50
2024-01-27T07:08:25.441Z,10.60
2024-01-27T07:09:26.283Z,10.10
2024-01-27T07:10:27.007Z,11.90
2024-01-27T07:11:27.764Z,11.40
2024-01-27T07:12:28.596Z,10.90
2024-01-27T07:13:29.348Z,11.30
2024-01-27T07:14:30.105Z,11.20
2024-01-27T07:15:30.939Z,10.30
2024-01-27T07:16:31.663Z,10.90
2024-01-27T07:17:32.450Z,9.40
2024-01-27T07:18:33.320Z,9.50
2024-01-27T07:19:34.222Z,10.00
2024-01-27T07:20:34.951Z,9.50
2024-01-27T07:21:35.737Z,11.00
2024-01-27T07:22:36.596Z,9.20
2024-01-27T07:23:37.348Z,9.90
2024-01-27T07:24:38.107Z,10.20
2024-01-27T07:25:38.879Z,9.80
2024-01-27T07:26:39.657Z,9.80
2024-01-27T07:27:40.563Z,10.30
2024-01-27T07:28:41.332Z,10.40
2024-01-27T07:29:42.059Z,10.10
2024-01-27T07:30:42.850Z,11.30
2024-01-27T07:31:43.604Z,9.90
2024-01-27T07:32:44.389Z,11.00
2024-01-27T07:33:45.227Z,10.60
2024-01-27T07:34:46.046Z,10.80
2024-01-27T07:35:46.809Z,11.40
2024-01-27T07:36:47.588Z,13.20
2024-01-27T07:37:48.362Z,11.50
2024-01-27T07:38:49.217Z,11.90
2024-01-27T07:39:49.973Z,11.50
2024-01-27T07:40:50.753Z,10.50
2024-01-27T07:41:51.545Z,12.20
2024-01-27T07:42:52.274Z,11.50
2024-01-27T07:43:53.025Z,11.30
2024-01-27T07:44:53.824Z,11.90
2024-01-27T07:45:54.577Z,12.90
2024-01-27T07:46:55.330Z,12.80
2024-01-27T07:47:57.783Z,12.60
2024-01-27T07:48:56.894Z,14.40
2024-01-27T07:49:57.722Z,12.80
2024-01-27T07:50:58.471Z,13.00
2024-01-27T07:51:59.210Z,13.50
2024-01-27T07:53:00.000Z,14.50
2024-01-27T07:54:00.775Z,14.30
2024-01-27T07:55:01.531Z,13.40
2024-01-27T07:56:03.648Z,17.10
2024-01-27T07:57:03.045Z,13.80
2024-01-27T07:58:03.775Z,13.60
2024-01-27T07:59:04.582Z,13.90
2024-01-27T08:00:05.387Z,14.10
2024-01-27T08:01:06.177Z,13.60
2024-01-27T08:02:06.950Z,15.00
2024-01-27T08:03:07.884Z,15.10
2024-01-27T08:04:08.744Z,14.20
2024-01-27T08:05:09.606Z,12.40
2024-01-27T08:06:10.378Z,12.10
2024-01-27T08:07:11.524Z,12.40
2024-01-27T08:08:11.866Z,12.80
2024-01-27T08:09:12.635Z,12.90
2024-01-27T08:10:13.349Z,12.20
2024-01-27T08:11:14.110Z,12.00
2024-01-27T08:12:14.970Z,10.80
2024-01-27T08:13:15.752Z,12.60
2024-01-27T08:14:16.505Z,10.60
2024-01-27T08:15:17.324Z,12.30
2024-01-27T08:16:18.134Z,10.30
2024-01-27T08:17:18.898Z,11.50
2024-01-27T08:18:19.925Z,10.50
2024-01-27T08:19:20.384Z,11.80
2024-01-27T08:20:21.097Z,10.10
2024-01-27T08:21:21.881Z,10.90
2024-01-27T08:22:22.633Z,10.40
2024-01-27T08:23:23.450Z,10.10
2024-01-27T08:24:24.235Z,11.10
2024-01-27T08:25:24.946Z,11.10
2024-01-27T08:26:25.703Z,10.40
2024-01-27T08:27:26.568Z,11.00
2024-01-27T08:28:27.299Z,10.80
2024-01-27T08:29:28.042Z,11.00
2024-01-27T08:30:28.847Z,10.00
2024-01-27T08:31:29.572Z,10.10
2024-01-27T08:32:30.401Z,9.50
2024-01-27T08:33:31.393Z,9.30
2024-01-27T08:34:31.934Z,8.60
2024-01-27T08:35:32.289Z,10.40
2024-01-27T08:36:33.168Z,9.40
2024-01-27T08:37:33.931Z,9.70
2024-01-27T08:38:34.706Z,9.90
2024-01-27T08:39:35.517Z,9.10
2024-01-27T08:40:36.336Z,8.90
2024-01-27T08:41:37.113Z,9.10
2024-01-27T08:42:37.902Z,8.90
2024-01-27T08:43:38.621Z,9.10
2024-01-27T08:44:39.379Z,8.70
2024-01-27T08:45:40.288Z,9.30
2024-01-27T08:46:41.087Z,10.70
2024-01-27T08:47:41.928Z,9.10
2024-01-27T08:48:43.114Z,8.70
2024-01-27T08:49:43.539Z,8.40
2024-01-27T08:50:44.263Z,9.10
2024-01-27T08:51:45.122Z,9.40
2024-01-27T08:52:45.852Z,10.00
2024-01-27T08:53:46.623Z,9.70
2024-01-27T08:54:47.356Z,9.20
2024-01-27T08:55:48.147Z,9.60
2024-01-27T08:56:48.884Z,8.50
2024-01-27T08:57:49.640Z,9.10
2024-01-27T08:58:50.391Z,8.50
2024-01-27T08:59:51.207Z,9.00
2024-01-27T09:00:52.148Z,8.30
2024-01-27T09:01:52.525Z,8.30
2024-01-27T09:02:53.374Z,8.10
2024-01-27T09:03:54.132Z,9.40
2024-01-27T09:04:54.942Z,8.70
2024-01-27T09:05:55.775Z,7.70
2024-01-27T09:06:56.582Z,8.90
2024-01-27T09:07:57.363Z,7.20
2024-01-27T09:08:58.158Z,7.00
2024-01-27T09:09:58.897Z,7.40
2024-01-27T09:10:59.676Z,7.60
2024-01-27T09:12:00.422Z,6.40
2024-01-27T09:13:01.171Z,8.20
2024-01-27T09:14:01.950Z,7.90
2024-01-27T09:15:02.815Z,8.10
2024-01-27T09:16:03.546Z,8.40
2024-01-27T09:17:04.296Z,7.60
2024-01-27T09:18:05.173Z,7.50
2024-01-27T09:19:06.185Z,8.50
2024-01-27T09:20:06.489Z,7.80
2024-01-27T09:21:07.230Z,7.70
2024-01-27T09:22:07.956Z,9.10
2024-01-27T09:23:08.733Z,7.70
2024-01-27T09:24:10.644Z,6.60
2024-01-27T09:25:10.196Z,7.20
2024-01-27T09:26:10.953Z,6.40
2024-01-27T09:27:11.738Z,7.00
2024-01-27T09:28:12.493Z,7.60
2024-01-27T09:29:13.248Z,6.70
2024-01-27T09:30:14.028Z,6.70
2024-01-27T09:31:14.747Z,7.60
2024-01-27T09:32:15.507Z,7.80
2024-01-27T09:33:16.433Z,5.90
2024-01-27T09:34:17.323Z,6.90
2024-01-27T09:35:18.214Z,7.10
2024-01-27T09:36:19.036Z,6.70
2024-01-27T09:37:19.803Z,7.30
2024-01-27T09:38:20.574Z,5.40
2024-01-27T09:39:21.394Z,6.40
2024-01-27T09:40:22.103Z,6.80
2024-01-27T09:41:22.876Z,6.80
2024-01-27T09:42:23.730Z,6.70
2024-01-27T09:43:24.466Z,5.80
2024-01-27T09:44:25.225Z,5.40
2024-01-27T09:45:26.035Z,5.90
2024-01-27T09:46:26.774Z,5.60
2024-01-27T09:47:27.548Z,5.20
2024-01-27T09:48:28.427Z,5.90
2024-01-27T09:49:28.935Z,5.80
2024-01-27T09:50:29.691Z,5.30
2024-01-27T09:51:30.500Z,6.50
2024-01-27T09:52:31.262Z,5.60
2024-01-27T09:53:32.020Z,5.70
2024-01-27T09:54:32.809Z,5.90
2024-01-27T09:55:33.584Z,6.80
2024-01-27T09:56:34.313Z,5.80
2024-01-27T09:57:35.140Z,4.70
2024-01-27T09:58:35.903Z,5.50
2024-01-27T09:59:36.650Z,6.70
2024-01-27T10:00:37.492Z,5.10
2024-01-27T10:01:38.301Z,5.90
2024-01-27T10:02:39.037Z,5.50
2024-01-27T10:03:39.952Z,5.10
2024-01-27T10:04:40.839Z,6.10
2024-01-27T10:05:41.653Z,5.70
2024-01-27T10:06:42.544Z,5.70
2024-01-27T10:07:43.511Z,6.40
2024-01-27T10:08:44.124Z,4.80
2024-01-27T10:09:44.925Z,5.40
2024-01-27T10:10:45.655Z,5.50
2024-01-27T10:11:46.184Z,5.10
2024-01-27T10:12:46.905Z,5.20
2024-01-27T10:13:47.661Z,4.70
2024-01-27T10:14:48.249Z,6.50
2024-01-27T10:15:49.000Z,4.60
2024-01-27T10:16:49.765Z,5.20
2024-01-27T10:17:50.350Z,5.20
2024-01-27T10:18:51.221Z,4.80
2024-01-27T10:19:52.080Z,4.90
2024-01-27T10:20:52.818Z,5.10
2024-01-27T10:21:53.570Z,4.60
2024-01-27T10:22:54.330Z,4.50
2024-01-27T10:23:55.119Z,4.20
2024-01-27T10:24:55.917Z,4.10
2024-01-27T10:25:58.429Z,5.20
2024-01-27T10:26:57.517Z,4.90
2024-01-27T10:27:58.254Z,4.80
2024-01-27T10:28:59.033Z,5.40
2024-01-27T10:29:59.836Z,5.30
2024-01-27T10:31:00.546Z,5.00
2024-01-27T10:32:03.669Z,4.50
2024-01-27T10:33:02.191Z,4.80
2024-01-27T10:34:02.756Z,3.80
2024-01-27T10:35:03.238Z,4.10
2024-01-27T10:36:04.040Z,4.50
2024-01-27T10:37:04.755Z,4.10
2024-01-27T10:38:05.527Z,4.70
2024-01-27T10:39:06.342Z,4.10
2024-01-27T10:40:07.089Z,3.60
2024-01-27T10:41:07.807Z,4.50
2024-01-27T10:42:08.638Z,4.50
2024-01-27T10:43:09.437Z,4.40
2024-01-27T10:44:10.229Z,3.90
2024-01-27T10:45:10.965Z,3.50
2024-01-27T10:46:11.713Z,3.80
2024-01-27T10:47:12.448Z,4.10
2024-01-27T10:48:13.539Z,5.60
2024-01-27T10:49:13.987Z,4.00
2024-01-27T10:50:14.716Z,4.00
2024-01-27T10:51:15.478Z,3.60
2024-01-27T10:52:16.221Z,5.60
2024-01-27T10:53:17.000Z,4.20
2024-01-27T10:54:17.791Z,3.70
2024-01-27T10:55:18.559Z,4.60
2024-01-27T10:56:19.262Z,4.80
2024-01-27T10:57:20.094Z,3.30
2024-01-27T10:58:20.859Z,4.00
2024-01-27T10:59:21.624Z,4.70
2024-01-27T11:00:22.392Z,4.20
2024-01-27T11:01:23.132Z,4.60
2024-01-27T11:02:23.891Z,5.30
2024-01-27T11:03:24.722Z,3.90
2024-01-27T11:04:25.615Z,4.60
2024-01-27T11:05:26.073Z,5.10
2024-01-27T11:06:26.908Z,4.90
2024-01-27T11:07:27.659Z,5.90
2024-01-27T11:08:28.407Z,7.00
2024-01-27T11:09:29.198Z,5.50
2024-01-27T11:10:29.980Z,4.90
2024-01-27T11:11:30.742Z,4.80
2024-01-27T11:12:31.522Z,3.60
2024-01-27T11:13:32.295Z,4.10
2024-01-27T11:14:33.050Z,4.80
2024-01-27T11:15:33.825Z,4.70
2024-01-27T11:16:34.614Z,4.00
2024-01-27T11:17:35.410Z,4.70
2024-01-27T11:18:36.202Z,3.40
2024-01-27T11:19:37.080Z,4.00
2024-01-27T11:20:39.947Z,4.30
2024-01-27T11:21:38.672Z,4.80
2024-01-27T11:22:39.503Z,4.20
2024-01-27T11:23:40.220Z,5.20
2024-01-27T11:24:41.032Z,5.10
2024-01-27T11:25:41.804Z,4.10
2024-01-27T11:26:42.649Z,3.40
2024-01-27T11:27:43.443Z,3.60
2024-01-27T11:28:44.243Z,4.10
2024-01-27T11:29:45.019Z,4.00
2024-01-27T11:30:45.854Z,3.90
2024-01-27T11:31:46.602Z,4.50
2024-01-27T11:32:47.400Z,3.90
2024-01-27T11:33:48.331Z,4.50
2024-01-27T11:34:48.807Z,4.60
2024-01-27T11:35:49.147Z,3.70
2024-01-27T11:36:49.911Z,5.10
2024-01-27T11:37:50.665Z,4.10
2024-01-27T11:38:51.406Z,4.60
2024-01-27T11:39:52.190Z,4.20
2024-01-27T11:40:52.966Z,4.60
2024-01-27T11:41:53.738Z,4.30
2024-01-27T11:42:54.447Z,5.30
2024-01-27T11:43:55.228Z,4.30
2024-01-27T11:44:56.032Z,3.70
2024-01-27T11:45:56.761Z,4.40
2024-01-27T11:46:57.519Z,5.20
2024-01-27T11:47:58.380Z,4.30
2024-01-27T11:48:59.265Z,4.20
2024-01-27T11:50:00.204Z,3.60
2024-01-27T11:51:01.080Z,3.90
2024-01-27T11:52:01.831Z,4.20
2024-01-27T11:53:02.603Z,3.90
2024-01-27T11:54:03.419Z,3.80
2024-01-27T11:55:04.179Z,3.30
2024-01-27T11:56:04.923Z,3.20
2024-01-27T11:57:05.672Z,4.30
2024-01-27T11:58:06.463Z,3.40
2024-01-27T11:59:07.187Z,4.10
2024-01-27T12:00:07.944Z,3.90
2024-01-27T12:01:08.740Z,3.30
2024-01-27T12:02:09.501Z,5.00
2024-01-27T12:03:10.341Z,3.80
2024-01-27T12:04:11.070Z,3.60
2024-01-27T12:05:11.861Z,3.40
2024-01-27T12:06:14.589Z,3.40
2024-01-27T12:07:13.682Z,4.50
2024-01-27T12:08:14.470Z,4.60
2024-01-27T12:09:15.281Z,4.00
2024-01-27T12:10:16.005Z,3.50
2024-01-27T12:11:19.767Z,3.80
2024-01-27T12:12:18.476Z,3.40
2024-01-27T12:13:18.227Z,3.10
2024-01-27T12:14:18.990Z,3.60
2024-01-27T12:15:19.762Z,3.80
2024-01-27T12:16:20.517Z,3.60
2024-01-27T12:17:21.293Z,3.80
2024-01-27T12:18:23.552Z,3.60
2024-01-27T12:19:22.666Z,4.00
2024-01-27T12:20:23.479Z,3.50
2024-01-27T12:21:24.366Z,3.90
2024-01-27T12:22:25.100Z,4.40
2024-01-27T12:23:25.858Z,4.90
2024-01-27T12:24:26.606Z,3.70
2024-01-27T12:25:27.357Z,3.40
2024-01-27T12:26:28.154Z,3.20
2024-01-27T12:27:28.935Z,3.90
2024-01-27T12:28:29.659Z,4.00
2024-01-27T12:29:30.399Z,4.40
2024-01-27T12:30:31.198Z,3.40
2024-01-27T12:31:31.953Z,3.80
2024-01-27T12:32:32.703Z,3.00
2024-01-27T12:33:33.609Z,2.80
2024-01-27T12:34:34.520Z,2.90
2024-01-27T12:35:35.308Z,3.80
2024-01-27T12:36:36.105Z,4.00
2024-01-27T12:37:36.851Z,3.40
2024-01-27T12:38:37.593Z,4.80
2024-01-27T12:39:38.420Z,6.00
2024-01-27T12:40:39.203Z,7.90
2024-01-27T12:41:39.914Z,4.10
2024-01-27T12:42:40.696Z,4.20
2024-01-27T12:43:41.426Z,4.90
2024-01-27T12:44:42.212Z,3.40
2024-01-27T12:45:43.075Z,3.20
2024-01-27T12:46:43.802Z,4.10
2024-01-27T12:47:44.573Z,3.50
2024-01-27T12:48:45.414Z,3.20
2024-01-27T12:49:46.312Z,3.20
2024-01-27T12:50:47.093Z,3.80
2024-01-27T12:51:47.855Z,4.10
2024-01-27T12:52:48.619Z,3.00
2024-01-27T12:53:49.398Z,3.40
2024-01-27T12:54:50.187Z,3.60
2024-01-27T12:55:50.933Z,3.20
2024-01-27T12:56:51.709Z,3.50
2024-01-27T12:57:52.448Z,3.60
2024-01-27T12:58:53.316Z,3.20
2024-01-27T12:59:54.083Z,3.20
2024-01-27T13:00:54.867Z,3.50
2024-01-27T13:01:55.640Z,4.80
2024-01-27T13:02:56.412Z,3.70
2024-01-27T13:03:57.300Z,3.30
2024-01-27T13:04:58.056Z,3.70
2024-01-27T13:05:58.883Z,3.50
2024-01-27T13:06:59.747Z,3.50
2024-01-27T13:08:00.507Z,4.30
2024-01-27T13:09:01.321Z,3.20
2024-01-27T13:10:02.047Z,3.60
2024-01-27T13:11:02.799Z,3.80
2024-01-27T13:12:03.650Z,3.80
2024-01-27T13:13:04.373Z,4.30
2024-01-27T13:14:05.129Z,3.90
2024-01-27T13:15:05.893Z,4.80
2024-01-27T13:16:06.630Z,3.40
2024-01-27T13:17:07.419Z,3.50
2024-01-27T13:18:08.301Z,3.50
2024-01-27T13:19:09.094Z,3.70
2024-01-27T13:20:09.853Z,2.70
2024-01-27T13:21:10.625Z,3.70
2024-01-27T13:22:11.391Z,3.20